sensor_id;sensor_type;location;lat;lon;timestamp;P1;durP1;ratioP1;P2;durP2;ratioP2
66093;SDS011;52876;49.394;10.892;2022-08-19T00:00:41;23.30;;;21.10;;
66093;SDS011;52876;49.394;10.892;2022-08-19T00:03:26;24.90;;;22.50;;
66093;SDS011;52876;49.394;10.892;2022-08-19T00:06:11;25.57;;;22.97;;
66093;SDS011;52876;49.394;10.892;2022-08-19T00:08:56;25.27;;;22.73;;
66093;SDS011;52876;49.394;10.892;2022-08-19T00:11:41;25.43;;;22.83;;
66093;SDS011;52876;49.394;10.892;2022-08-19T00:14:28;25.50;;;23.00;;
66093;SDS011;52876;49.394;10.892;2022-08-19T00:17:13;23.77;;;21.50;;
66093;SDS011;52876;49.394;10.892;2022-08-19T00:19:58;22.80;;;20.60;;
66093;SDS011;52876;49.394;10.892;2022-08-19T00:22:43;24.10;;;21.77;;
66093;SDS011;52876;49.394;10.892;2022-08-19T00:25:28;25.93;;;23.33;;
66093;SDS011;52876;49.394;10.892;2022-08-19T00:28:12;25.23;;;22.00;;
66093;SDS011;52876;49.394;10.892;2022-08-19T00:30:59;24.50;;;21.90;;
66093;SDS011;52876;49.394;10.892;2022-08-19T00:33:43;27.57;;;24.80;;
66093;SDS011;52876;49.394;10.892;2022-08-19T00:36:27;27.40;;;24.70;;
66093;SDS011;52876;49.394;10.892;2022-08-19T00:39:13;26.23;;;23.60;;
66093;SDS011;52876;49.394;10.892;2022-08-19T00:41:58;23.23;;;20.93;;
66093;SDS011;52876;49.394;10.892;2022-08-19T00:44:43;27.30;;;24.23;;
66093;SDS011;52876;49.394;10.892;2022-08-19T00:47:29;26.23;;;23.57;;
66093;SDS011;52876;49.394;10.892;2022-08-19T00:50:15;25.73;;;23.33;;
66093;SDS011;52876;49.394;10.892;2022-08-19T00:53:01;29.93;;;24.67;;
66093;SDS011;52876;49.394;10.892;2022-08-19T00:55:31;26.60;;;24.00;;
66093;SDS011;52876;49.394;10.892;2022-08-19T00:58:00;25.93;;;23.27;;
66093;SDS011;52876;49.394;10.892;2022-08-19T01:00:30;24.93;;;22.43;;
66093;SDS011;52876;49.394;10.892;2022-08-19T01:02:58;28.20;;;25.23;;
66093;SDS011;52876;49.394;10.892;2022-08-19T01:05:25;28.33;;;25.17;;
66093;SDS011;52876;49.394;10.892;2022-08-19T01:07:54;28.70;;;25.80;;
66093;SDS011;52876;49.394;10.892;2022-08-19T01:10:23;25.10;;;22.60;;
66093;SDS011;52876;49.394;10.892;2022-08-19T01:12:52;27.67;;;24.87;;
66093;SDS011;52876;49.394;10.892;2022-08-19T01:15:21;27.07;;;24.17;;
66093;SDS011;52876;49.394;10.892;2022-08-19T01:17:51;28.73;;;25.83;;
66093;SDS011;52876;49.394;10.892;2022-08-19T01:20:20;26.97;;;24.27;;
66093;SDS011;52876;49.394;10.892;2022-08-19T01:22:50;28.70;;;25.67;;
66093;SDS011;52876;49.394;10.892;2022-08-19T01:25:19;30.37;;;26.57;;
66093;SDS011;52876;49.394;10.892;2022-08-19T01:27:50;30.43;;;27.50;;
66093;SDS011;52876;49.394;10.892;2022-08-19T01:30:19;31.13;;;27.90;;
66093;SDS011;52876;49.394;10.892;2022-08-19T01:32:48;31.60;;;28.30;;
66093;SDS011;52876;49.394;10.892;2022-08-19T01:35:14;29.67;;;26.67;;
66093;SDS011;52876;49.394;10.892;2022-08-19T01:37:43;28.30;;;25.30;;
66093;SDS011;52876;49.394;10.892;2022-08-19T01:40:13;26.17;;;23.57;;
66093;SDS011;52876;49.394;10.892;2022-08-19T01:42:40;29.47;;;26.50;;
66093;SDS011;52876;49.394;10.892;2022-08-19T01:45:07;27.67;;;24.87;;
66093;SDS011;52876;49.394;10.892;2022-08-19T01:47:35;29.33;;;26.23;;
66093;SDS011;52876;49.394;10.892;2022-08-19T01:50:08;29.27;;;26.37;;
66093;SDS011;52876;49.394;10.892;2022-08-19T01:52:37;29.57;;;26.50;;
66093;SDS011;52876;49.394;10.892;2022-08-19T01:55:04;29.37;;;26.30;;
66093;SDS011;52876;49.394;10.892;2022-08-19T01:57:35;30.53;;;27.37;;
66093;SDS011;52876;49.394;10.892;2022-08-19T02:00:04;29.67;;;26.63;;
66093;SDS011;52876;49.394;10.892;2022-08-19T02:02:33;30.17;;;26.97;;
66093;SDS011;52876;49.394;10.892;2022-08-19T02:04:59;30.97;;;27.73;;
66093;SDS011;52876;49.394;10.892;2022-08-19T02:07:27;29.80;;;26.57;;
66093;SDS011;52876;49.394;10.892;2022-08-19T02:09:54;31.37;;;28.07;;
66093;SDS011;52876;49.394;10.892;2022-08-19T02:12:20;33.03;;;26.30;;
66093;SDS011;52876;49.394;10.892;2022-08-19T02:14:47;29.77;;;26.63;;
66093;SDS011;52876;49.394;10.892;2022-08-19T02:17:15;30.83;;;27.43;;
66093;SDS011;52876;49.394;10.892;2022-08-19T02:19:41;27.00;;;24.10;;
66093;SDS011;52876;49.394;10.892;2022-08-19T02:22:08;32.13;;;27.80;;
66093;SDS011;52876;49.394;10.892;2022-08-19T02:24:44;29.27;;;26.33;;
66093;SDS011;52876;49.394;10.892;2022-08-19T02:27:18;29.67;;;26.63;;
66093;SDS011;52876;49.394;10.892;2022-08-19T02:29:45;29.20;;;25.97;;
66093;SDS011;52876;49.394;10.892;2022-08-19T02:32:15;27.97;;;24.97;;
66093;SDS011;52876;49.394;10.892;2022-08-19T02:34:41;29.93;;;25.70;;
66093;SDS011;52876;49.394;10.892;2022-08-19T02:37:07;28.27;;;25.30;;
66093;SDS011;52876;49.394;10.892;2022-08-19T02:39:44;28.03;;;24.73;;
66093;SDS011;52876;49.394;10.892;2022-08-19T02:42:11;27.93;;;24.93;;
66093;SDS011;52876;49.394;10.892;2022-08-19T02:44:37;29.17;;;24.40;;
66093;SDS011;52876;49.394;10.892;2022-08-19T02:47:05;27.43;;;24.63;;
66093;SDS011;52876;49.394;10.892;2022-08-19T02:49:31;28.47;;;25.47;;
66093;SDS011;52876;49.394;10.892;2022-08-19T02:51:57;28.50;;;25.30;;
66093;SDS011;52876;49.394;10.892;2022-08-19T02:54:24;27.40;;;24.60;;
66093;SDS011;52876;49.394;10.892;2022-08-19T02:56:51;28.50;;;25.50;;
66093;SDS011;52876;49.394;10.892;2022-08-19T02:59:17;28.67;;;25.20;;
66093;SDS011;52876;49.394;10.892;2022-08-19T03:01:44;27.70;;;24.90;;
66093;SDS011;52876;49.394;10.892;2022-08-19T03:04:16;29.70;;;26.50;;
66093;SDS011;52876;49.394;10.892;2022-08-19T03:06:44;26.23;;;23.43;;
66093;SDS011;52876;49.394;10.892;2022-08-19T03:09:11;26.80;;;24.00;;
66093;SDS011;52876;49.394;10.892;2022-08-19T03:11:38;28.60;;;24.70;;
66093;SDS011;52876;49.394;10.892;2022-08-19T03:14:05;28.03;;;25.00;;
66093;SDS011;52876;49.394;10.892;2022-08-19T03:16:36;28.80;;;25.80;;
66093;SDS011;52876;49.394;10.892;2022-08-19T03:21:45;28.03;;;24.57;;
66093;SDS011;52876;49.394;10.892;2022-08-19T03:24:12;28.43;;;25.43;;
66093;SDS011;52876;49.394;10.892;2022-08-19T03:26:40;28.63;;;25.60;;
66093;SDS011;52876;49.394;10.892;2022-08-19T03:29:07;28.60;;;24.50;;
66093;SDS011;52876;49.394;10.892;2022-08-19T03:31:34;30.13;;;25.83;;
66093;SDS011;52876;49.394;10.892;2022-08-19T03:34:01;29.37;;;26.53;;
66093;SDS011;52876;49.394;10.892;2022-08-19T03:36:28;27.53;;;24.70;;
66093;SDS011;52876;49.394;10.892;2022-08-19T03:38:56;30.27;;;27.07;;
66093;SDS011;52876;49.394;10.892;2022-08-19T03:41:25;29.47;;;26.47;;
66093;SDS011;52876;49.394;10.892;2022-08-19T03:43:53;31.07;;;27.87;;
66093;SDS011;52876;49.394;10.892;2022-08-19T03:46:20;29.87;;;26.37;;
66093;SDS011;52876;49.394;10.892;2022-08-19T03:48:48;30.50;;;27.27;;
66093;SDS011;52876;49.394;10.892;2022-08-19T03:51:17;30.67;;;27.47;;
66093;SDS011;52876;49.394;10.892;2022-08-19T03:53:45;32.30;;;28.80;;
66093;SDS011;52876;49.394;10.892;2022-08-19T03:56:13;32.57;;;26.53;;
66093;SDS011;52876;49.394;10.892;2022-08-19T03:58:39;30.80;;;27.60;;
66093;SDS011;52876;49.394;10.892;2022-08-19T04:01:07;31.57;;;27.70;;
66093;SDS011;52876;49.394;10.892;2022-08-19T04:03:34;31.13;;;27.73;;
66093;SDS011;52876;49.394;10.892;2022-08-19T04:06:08;29.97;;;26.83;;
66093;SDS011;52876;49.394;10.892;2022-08-19T04:08:36;29.43;;;26.23;;
66093;SDS011;52876;49.394;10.892;2022-08-19T04:11:05;30.70;;;27.33;;
66093;SDS011;52876;49.394;10.892;2022-08-19T04:13:33;31.13;;;27.73;;
66093;SDS011;52876;49.394;10.892;2022-08-19T04:15:59;31.77;;;28.40;;
66093;SDS011;52876;49.394;10.892;2022-08-19T04:18:26;30.43;;;26.17;;
66093;SDS011;52876;49.394;10.892;2022-08-19T04:20:53;30.37;;;26.53;;
66093;SDS011;52876;49.394;10.892;2022-08-19T04:23:19;28.70;;;25.70;;
66093;SDS011;52876;49.394;10.892;2022-08-19T04:25:47;32.70;;;29.23;;
66093;SDS011;52876;49.394;10.892;2022-08-19T04:28:13;30.57;;;27.23;;
66093;SDS011;52876;49.394;10.892;2022-08-19T04:30:43;33.90;;;29.43;;
66093;SDS011;52876;49.394;10.892;2022-08-19T04:33:11;34.17;;;29.00;;
66093;SDS011;52876;49.394;10.892;2022-08-19T04:35:39;29.40;;;26.20;;
66093;SDS011;52876;49.394;10.892;2022-08-19T04:38:06;29.70;;;26.47;;
66093;SDS011;52876;49.394;10.892;2022-08-19T04:40:33;31.77;;;26.83;;
66093;SDS011;52876;49.394;10.892;2022-08-19T04:42:59;30.57;;;27.17;;
66093;SDS011;52876;49.394;10.892;2022-08-19T04:45:26;29.40;;;25.40;;
66093;SDS011;52876;49.394;10.892;2022-08-19T04:47:55;29.97;;;26.57;;
66093;SDS011;52876;49.394;10.892;2022-08-19T04:50:21;28.57;;;25.37;;
66093;SDS011;52876;49.394;10.892;2022-08-19T04:52:49;28.63;;;25.53;;
66093;SDS011;52876;49.394;10.892;2022-08-19T04:55:16;28.50;;;25.50;;
66093;SDS011;52876;49.394;10.892;2022-08-19T04:57:43;31.93;;;26.60;;
66093;SDS011;52876;49.394;10.892;2022-08-19T05:00:10;32.10;;;26.10;;
66093;SDS011;52876;49.394;10.892;2022-08-19T05:02:38;31.07;;;26.17;;
66093;SDS011;52876;49.394;10.892;2022-08-19T05:05:05;31.10;;;27.70;;
66093;SDS011;52876;49.394;10.892;2022-08-19T05:07:34;30.13;;;26.77;;
66093;SDS011;52876;49.394;10.892;2022-08-19T05:10:00;30.43;;;27.00;;
66093;SDS011;52876;49.394;10.892;2022-08-19T05:12:28;30.93;;;25.50;;
66093;SDS011;52876;49.394;10.892;2022-08-19T05:14:54;28.60;;;25.50;;
66093;SDS011;52876;49.394;10.892;2022-08-19T05:17:21;31.97;;;27.87;;
66093;SDS011;52876;49.394;10.892;2022-08-19T05:19:48;28.83;;;25.73;;
66093;SDS011;52876;49.394;10.892;2022-08-19T05:22:16;30.20;;;26.90;;
66093;SDS011;52876;49.394;10.892;2022-08-19T05:24:45;31.10;;;26.60;;
66093;SDS011;52876;49.394;10.892;2022-08-19T05:27:17;31.07;;;26.73;;
66093;SDS011;52876;49.394;10.892;2022-08-19T05:29:43;30.30;;;27.10;;
66093;SDS011;52876;49.394;10.892;2022-08-19T05:32:10;31.17;;;26.20;;
66093;SDS011;52876;49.394;10.892;2022-08-19T05:34:48;31.50;;;26.00;;
66093;SDS011;52876;49.394;10.892;2022-08-19T05:37:14;34.50;;;27.33;;
66093;SDS011;52876;49.394;10.892;2022-08-19T05:39:46;33.00;;;29.03;;
66093;SDS011;52876;49.394;10.892;2022-08-19T05:42:14;30.07;;;26.33;;
66093;SDS011;52876;49.394;10.892;2022-08-19T05:44:41;31.17;;;26.00;;
66093;SDS011;52876;49.394;10.892;2022-08-19T05:47:08;31.33;;;26.60;;
66093;SDS011;52876;49.394;10.892;2022-08-19T05:49:35;29.30;;;26.10;;
66093;SDS011;52876;49.394;10.892;2022-08-19T05:52:03;27.87;;;24.97;;
66093;SDS011;52876;49.394;10.892;2022-08-19T05:57:18;30.00;;;26.90;;
66093;SDS011;52876;49.394;10.892;2022-08-19T05:59:44;32.37;;;28.53;;
66093;SDS011;52876;49.394;10.892;2022-08-19T06:02:11;36.10;;;28.63;;
66093;SDS011;52876;49.394;10.892;2022-08-19T06:04:37;29.87;;;25.97;;
66093;SDS011;52876;49.394;10.892;2022-08-19T06:07:05;34.63;;;27.67;;
66093;SDS011;52876;49.394;10.892;2022-08-19T06:12:15;30.13;;;26.77;;
66093;SDS011;52876;49.394;10.892;2022-08-19T06:14:41;35.20;;;29.70;;
66093;SDS011;52876;49.394;10.892;2022-08-19T06:17:09;33.00;;;28.37;;
66093;SDS011;52876;49.394;10.892;2022-08-19T06:19:35;29.93;;;26.73;;
66093;SDS011;52876;49.394;10.892;2022-08-19T06:22:02;32.30;;;28.80;;
66093;SDS011;52876;49.394;10.892;2022-08-19T06:24:29;32.27;;;28.77;;
66093;SDS011;52876;49.394;10.892;2022-08-19T06:26:59;28.90;;;25.80;;
66093;SDS011;52876;49.394;10.892;2022-08-19T06:29:26;31.63;;;27.20;;
66093;SDS011;52876;49.394;10.892;2022-08-19T06:31:53;30.10;;;25.20;;
66093;SDS011;52876;49.394;10.892;2022-08-19T06:34:20;29.47;;;25.27;;
66093;SDS011;52876;49.394;10.892;2022-08-19T06:36:48;28.20;;;25.20;;
66093;SDS011;52876;49.394;10.892;2022-08-19T06:39:17;29.77;;;26.50;;
66093;SDS011;52876;49.394;10.892;2022-08-19T06:41:47;28.73;;;25.70;;
66093;SDS011;52876;49.394;10.892;2022-08-19T06:44:17;28.40;;;25.40;;
66093;SDS011;52876;49.394;10.892;2022-08-19T06:46:45;28.60;;;25.60;;
66093;SDS011;52876;49.394;10.892;2022-08-19T06:49:11;28.93;;;25.90;;
66093;SDS011;52876;49.394;10.892;2022-08-19T06:51:37;31.00;;;27.67;;
66093;SDS011;52876;49.394;10.892;2022-08-19T06:54:03;28.67;;;25.83;;
66093;SDS011;52876;49.394;10.892;2022-08-19T06:56:32;24.93;;;22.23;;
66093;SDS011;52876;49.394;10.892;2022-08-19T06:58:59;23.67;;;21.17;;
66093;SDS011;52876;49.394;10.892;2022-08-19T07:01:28;24.40;;;20.63;;
66093;SDS011;52876;49.394;10.892;2022-08-19T07:03:54;23.23;;;20.93;;
66093;SDS011;52876;49.394;10.892;2022-08-19T07:06:21;22.07;;;19.90;;
66093;SDS011;52876;49.394;10.892;2022-08-19T07:08:47;20.77;;;18.77;;
66093;SDS011;52876;49.394;10.892;2022-08-19T07:11:16;21.60;;;19.30;;
66093;SDS011;52876;49.394;10.892;2022-08-19T07:13:43;20.10;;;18.00;;
66093;SDS011;52876;49.394;10.892;2022-08-19T07:16:12;21.70;;;19.60;;
66093;SDS011;52876;49.394;10.892;2022-08-19T07:18:41;19.50;;;17.50;;
66093;SDS011;52876;49.394;10.892;2022-08-19T07:21:09;21.43;;;19.13;;
66093;SDS011;52876;49.394;10.892;2022-08-19T07:23:38;19.83;;;17.90;;
66093;SDS011;52876;49.394;10.892;2022-08-19T07:26:06;19.87;;;17.87;;
66093;SDS011;52876;49.394;10.892;2022-08-19T07:28:33;20.03;;;17.80;;
66093;SDS011;52876;49.394;10.892;2022-08-19T07:30:59;17.63;;;15.93;;
66093;SDS011;52876;49.394;10.892;2022-08-19T07:33:25;17.33;;;15.63;;
66093;SDS011;52876;49.394;10.892;2022-08-19T07:35:54;19.70;;;17.70;;
66093;SDS011;52876;49.394;10.892;2022-08-19T07:38:20;20.10;;;18.10;;
66093;SDS011;52876;49.394;10.892;2022-08-19T07:40:47;21.60;;;19.57;;
66093;SDS011;52876;49.394;10.892;2022-08-19T07:43:14;20.80;;;18.50;;
66093;SDS011;52876;49.394;10.892;2022-08-19T07:45:41;22.43;;;20.10;;
66093;SDS011;52876;49.394;10.892;2022-08-19T07:48:07;18.57;;;16.77;;
66093;SDS011;52876;49.394;10.892;2022-08-19T07:50:47;20.43;;;18.30;;
66093;SDS011;52876;49.394;10.892;2022-08-19T07:53:14;21.97;;;19.77;;
66093;SDS011;52876;49.394;10.892;2022-08-19T07:55:40;23.67;;;18.43;;
66093;SDS011;52876;49.394;10.892;2022-08-19T07:58:07;18.67;;;16.87;;
66093;SDS011;52876;49.394;10.892;2022-08-19T08:00:50;19.50;;;17.40;;
66093;SDS011;52876;49.394;10.892;2022-08-19T08:03:18;18.90;;;17.00;;
66093;SDS011;52876;49.394;10.892;2022-08-19T08:05:46;21.97;;;19.77;;
66093;SDS011;52876;49.394;10.892;2022-08-19T08:08:13;23.13;;;20.50;;
66093;SDS011;52876;49.394;10.892;2022-08-19T08:10:39;23.07;;;20.50;;
66093;SDS011;52876;49.394;10.892;2022-08-19T08:13:06;25.00;;;22.43;;
66093;SDS011;52876;49.394;10.892;2022-08-19T08:15:32;25.23;;;22.53;;
66093;SDS011;52876;49.394;10.892;2022-08-19T08:18:00;25.07;;;22.47;;
66093;SDS011;52876;49.394;10.892;2022-08-19T08:20:28;26.93;;;22.20;;
66093;SDS011;52876;49.394;10.892;2022-08-19T08:22:54;27.47;;;24.43;;
66093;SDS011;52876;49.394;10.892;2022-08-19T08:25:25;25.23;;;22.60;;
66093;SDS011;52876;49.394;10.892;2022-08-19T08:27:52;24.10;;;21.37;;
66093;SDS011;52876;49.394;10.892;2022-08-19T08:30:21;24.33;;;21.93;;
66093;SDS011;52876;49.394;10.892;2022-08-19T08:32:51;24.20;;;21.70;;
66093;SDS011;52876;49.394;10.892;2022-08-19T08:35:19;28.50;;;25.47;;
66093;SDS011;52876;49.394;10.892;2022-08-19T08:37:55;24.17;;;21.70;;
66093;SDS011;52876;49.394;10.892;2022-08-19T08:40:31;26.80;;;23.70;;
66093;SDS011;52876;49.394;10.892;2022-08-19T08:43:07;26.83;;;24.03;;
66093;SDS011;52876;49.394;10.892;2022-08-19T08:45:47;27.90;;;23.87;;
66093;SDS011;52876;49.394;10.892;2022-08-19T08:48:18;27.27;;;24.47;;
66093;SDS011;52876;49.394;10.892;2022-08-19T08:53:36;25.87;;;23.20;;
66093;SDS011;52876;49.394;10.892;2022-08-19T08:56:06;25.83;;;23.13;;
66093;SDS011;52876;49.394;10.892;2022-08-19T08:58:36;29.10;;;24.37;;
66093;SDS011;52876;49.394;10.892;2022-08-19T09:01:09;25.00;;;22.30;;
66093;SDS011;52876;49.394;10.892;2022-08-19T09:03:37;24.20;;;21.70;;
66093;SDS011;52876;49.394;10.892;2022-08-19T09:06:10;22.73;;;20.53;;
66093;SDS011;52876;49.394;10.892;2022-08-19T09:08:41;26.83;;;23.93;;
66093;SDS011;52876;49.394;10.892;2022-08-19T09:14:32;24.07;;;21.13;;
66093;SDS011;52876;49.394;10.892;2022-08-19T09:17:01;23.97;;;21.67;;
66093;SDS011;52876;49.394;10.892;2022-08-19T09:19:27;22.30;;;19.90;;
66093;SDS011;52876;49.394;10.892;2022-08-19T09:21:56;24.67;;;22.33;;
66093;SDS011;52876;49.394;10.892;2022-08-19T09:24:23;23.47;;;20.97;;
66093;SDS011;52876;49.394;10.892;2022-08-19T09:26:50;23.77;;;21.30;;
66093;SDS011;52876;49.394;10.892;2022-08-19T09:29:16;25.10;;;22.60;;
66093;SDS011;52876;49.394;10.892;2022-08-19T09:31:43;23.47;;;21.10;;
66093;SDS011;52876;49.394;10.892;2022-08-19T09:34:09;23.53;;;21.07;;
66093;SDS011;52876;49.394;10.892;2022-08-19T09:36:36;22.57;;;20.23;;
66093;SDS011;52876;49.394;10.892;2022-08-19T09:39:04;24.83;;;22.20;;
66093;SDS011;52876;49.394;10.892;2022-08-19T09:41:31;24.07;;;21.47;;
66093;SDS011;52876;49.394;10.892;2022-08-19T09:43:58;23.20;;;20.93;;
66093;SDS011;52876;49.394;10.892;2022-08-19T09:46:26;27.00;;;24.10;;
66093;SDS011;52876;49.394;10.892;2022-08-19T09:48:56;25.23;;;22.70;;
66093;SDS011;52876;49.394;10.892;2022-08-19T09:51:25;23.70;;;21.20;;
66093;SDS011;52876;49.394;10.892;2022-08-19T09:53:52;27.43;;;22.57;;
66093;SDS011;52876;49.394;10.892;2022-08-19T09:56:33;25.07;;;22.47;;
66093;SDS011;52876;49.394;10.892;2022-08-19T09:59:00;23.17;;;20.77;;
66093;SDS011;52876;49.394;10.892;2022-08-19T10:01:31;26.70;;;22.80;;
66093;SDS011;52876;49.394;10.892;2022-08-19T10:03:58;24.33;;;21.53;;
66093;SDS011;52876;49.394;10.892;2022-08-19T10:06:27;23.47;;;21.13;;
66093;SDS011;52876;49.394;10.892;2022-08-19T10:08:55;23.90;;;21.40;;
66093;SDS011;52876;49.394;10.892;2022-08-19T10:11:21;27.03;;;24.23;;
66093;SDS011;52876;49.394;10.892;2022-08-19T10:13:49;24.17;;;21.80;;
66093;SDS011;52876;49.394;10.892;2022-08-19T10:16:19;25.43;;;22.73;;
66093;SDS011;52876;49.394;10.892;2022-08-19T10:18:47;23.60;;;21.10;;
66093;SDS011;52876;49.394;10.892;2022-08-19T10:21:17;24.50;;;22.00;;
66093;SDS011;52876;49.394;10.892;2022-08-19T10:23:47;23.50;;;21.13;;
66093;SDS011;52876;49.394;10.892;2022-08-19T10:26:17;23.73;;;21.27;;
66093;SDS011;52876;49.394;10.892;2022-08-19T10:28:45;22.83;;;20.53;;
66093;SDS011;52876;49.394;10.892;2022-08-19T10:31:15;22.60;;;20.30;;
66093;SDS011;52876;49.394;10.892;2022-08-19T10:33:45;21.77;;;19.50;;
66093;SDS011;52876;49.394;10.892;2022-08-19T10:36:14;22.97;;;20.67;;
66093;SDS011;52876;49.394;10.892;2022-08-19T10:38:43;19.83;;;17.90;;
66093;SDS011;52876;49.394;10.892;2022-08-19T10:41:11;20.50;;;18.40;;
66093;SDS011;52876;49.394;10.892;2022-08-19T10:43:39;22.10;;;19.93;;
66093;SDS011;52876;49.394;10.892;2022-08-19T10:46:06;24.40;;;21.80;;
66093;SDS011;52876;49.394;10.892;2022-08-19T10:48:34;21.43;;;19.17;;
66093;SDS011;52876;49.394;10.892;2022-08-19T10:51:02;21.30;;;19.20;;
66093;SDS011;52876;49.394;10.892;2022-08-19T10:53:29;21.47;;;19.50;;
66093;SDS011;52876;49.394;10.892;2022-08-19T10:55:55;21.20;;;19.10;;
66093;SDS011;52876;49.394;10.892;2022-08-19T10:58:22;20.93;;;18.93;;
66093;SDS011;52876;49.394;10.892;2022-08-19T11:00:51;21.43;;;18.90;;
66093;SDS011;52876;49.394;10.892;2022-08-19T11:03:18;21.43;;;19.17;;
66093;SDS011;52876;49.394;10.892;2022-08-19T11:05:51;23.07;;;20.80;;
66093;SDS011;52876;49.394;10.892;2022-08-19T11:08:22;20.90;;;18.70;;
66093;SDS011;52876;49.394;10.892;2022-08-19T11:10:51;21.97;;;19.97;;
66093;SDS011;52876;49.394;10.892;2022-08-19T11:13:18;21.07;;;18.97;;
66093;SDS011;52876;49.394;10.892;2022-08-19T11:15:45;21.50;;;19.27;;
66093;SDS011;52876;49.394;10.892;2022-08-19T11:18:12;19.77;;;17.77;;
66093;SDS011;52876;49.394;10.892;2022-08-19T11:20:39;20.50;;;18.50;;
66093;SDS011;52876;49.394;10.892;2022-08-19T11:23:08;20.97;;;18.67;;
66093;SDS011;52876;49.394;10.892;2022-08-19T11:25:34;21.40;;;18.33;;
66093;SDS011;52876;49.394;10.892;2022-08-19T11:28:03;22.30;;;20.20;;
66093;SDS011;52876;49.394;10.892;2022-08-19T11:30:30;21.67;;;19.50;;
66093;SDS011;52876;49.394;10.892;2022-08-19T11:32:56;20.23;;;18.43;;
66093;SDS011;52876;49.394;10.892;2022-08-19T11:35:23;20.70;;;18.80;;
66093;SDS011;52876;49.394;10.892;2022-08-19T11:37:50;20.87;;;18.77;;
66093;SDS011;52876;49.394;10.892;2022-08-19T11:40:17;20.67;;;18.60;;
66093;SDS011;52876;49.394;10.892;2022-08-19T11:42:59;21.17;;;18.10;;
66093;SDS011;52876;49.394;10.892;2022-08-19T11:45:26;21.93;;;19.60;;
66093;SDS011;52876;49.394;10.892;2022-08-19T11:47:53;19.93;;;18.03;;
66093;SDS011;52876;49.394;10.892;2022-08-19T11:50:21;22.87;;;20.67;;
66093;SDS011;52876;49.394;10.892;2022-08-19T11:52:56;22.33;;;19.93;;
66093;SDS011;52876;49.394;10.892;2022-08-19T11:55:26;20.30;;;18.30;;
66093;SDS011;52876;49.394;10.892;2022-08-19T11:57:53;20.97;;;18.83;;
66093;SDS011;52876;49.394;10.892;2022-08-19T12:00:19;23.40;;;21.20;;
66093;SDS011;52876;49.394;10.892;2022-08-19T12:02:47;21.80;;;19.57;;
66093;SDS011;52876;49.394;10.892;2022-08-19T12:05:15;22.97;;;20.63;;
66093;SDS011;52876;49.394;10.892;2022-08-19T12:07:43;22.13;;;19.90;;
66093;SDS011;52876;49.394;10.892;2022-08-19T12:10:09;21.33;;;19.23;;
66093;SDS011;52876;49.394;10.892;2022-08-19T12:12:39;22.20;;;19.87;;
66093;SDS011;52876;49.394;10.892;2022-08-19T12:15:05;21.07;;;19.07;;
66093;SDS011;52876;49.394;10.892;2022-08-19T12:17:34;21.53;;;19.50;;
66093;SDS011;52876;49.394;10.892;2022-08-19T12:20:01;23.50;;;21.30;;
66093;SDS011;52876;49.394;10.892;2022-08-19T12:22:32;20.70;;;18.53;;
66093;SDS011;52876;49.394;10.892;2022-08-19T12:24:59;20.77;;;18.77;;
66093;SDS011;52876;49.394;10.892;2022-08-19T12:27:27;23.00;;;20.77;;
66093;SDS011;52876;49.394;10.892;2022-08-19T12:29:54;19.73;;;18.03;;
66093;SDS011;52876;49.394;10.892;2022-08-19T12:32:22;18.33;;;16.63;;
66093;SDS011;52876;49.394;10.892;2022-08-19T12:34:49;18.83;;;17.13;;
66093;SDS011;52876;49.394;10.892;2022-08-19T12:37:15;21.10;;;19.20;;
66093;SDS011;52876;49.394;10.892;2022-08-19T12:39:46;20.60;;;18.60;;
66093;SDS011;52876;49.394;10.892;2022-08-19T12:42:14;19.30;;;17.67;;
66093;SDS011;52876;49.394;10.892;2022-08-19T12:44:42;21.50;;;19.40;;
66093;SDS011;52876;49.394;10.892;2022-08-19T12:47:10;21.70;;;19.60;;
66093;SDS011;52876;49.394;10.892;2022-08-19T12:49:39;20.77;;;18.87;;
66093;SDS011;52876;49.394;10.892;2022-08-19T12:52:08;24.40;;;20.93;;
66093;SDS011;52876;49.394;10.892;2022-08-19T12:54:47;24.23;;;21.93;;
66093;SDS011;52876;49.394;10.892;2022-08-19T12:57:14;29.60;;;26.53;;
66093;SDS011;52876;49.394;10.892;2022-08-19T12:59:41;28.40;;;25.50;;
66093;SDS011;52876;49.394;10.892;2022-08-19T13:02:09;32.50;;;29.10;;
66093;SDS011;52876;49.394;10.892;2022-08-19T13:04:36;31.57;;;27.03;;
66093;SDS011;52876;49.394;10.892;2022-08-19T13:07:04;34.57;;;30.63;;
66093;SDS011;52876;49.394;10.892;2022-08-19T13:09:30;34.93;;;30.80;;
66093;SDS011;52876;49.394;10.892;2022-08-19T13:11:57;39.70;;;33.60;;
66093;SDS011;52876;49.394;10.892;2022-08-19T13:14:24;41.73;;;34.87;;
66093;SDS011;52876;49.394;10.892;2022-08-19T13:16:52;35.53;;;30.37;;
66093;SDS011;52876;49.394;10.892;2022-08-19T13:19:19;41.83;;;33.63;;
66093;SDS011;52876;49.394;10.892;2022-08-19T13:21:48;41.23;;;34.77;;
66093;SDS011;52876;49.394;10.892;2022-08-19T13:24:15;42.03;;;35.90;;
66093;SDS011;52876;49.394;10.892;2022-08-19T13:26:42;41.80;;;34.87;;
66093;SDS011;52876;49.394;10.892;2022-08-19T13:29:09;36.67;;;32.17;;
66093;SDS011;52876;49.394;10.892;2022-08-19T13:31:40;40.77;;;34.13;;
66093;SDS011;52876;49.394;10.892;2022-08-19T13:34:07;41.47;;;36.20;;
66093;SDS011;52876;49.394;10.892;2022-08-19T13:36:41;42.03;;;35.87;;
66093;SDS011;52876;49.394;10.892;2022-08-19T13:42:05;42.27;;;37.77;;
66093;SDS011;52876;49.394;10.892;2022-08-19T13:44:33;40.70;;;35.93;;
66093;SDS011;52876;49.394;10.892;2022-08-19T13:47:02;45.83;;;39.10;;
66093;SDS011;52876;49.394;10.892;2022-08-19T13:49:30;47.60;;;40.33;;
66093;SDS011;52876;49.394;10.892;2022-08-19T13:51:56;44.50;;;37.63;;
66093;SDS011;52876;49.394;10.892;2022-08-19T13:54:23;43.70;;;37.87;;
66093;SDS011;52876;49.394;10.892;2022-08-19T13:56:53;40.90;;;34.93;;
66093;SDS011;52876;49.394;10.892;2022-08-19T13:59:19;40.80;;;35.07;;
66093;SDS011;52876;49.394;10.892;2022-08-19T14:01:46;41.33;;;36.03;;
66093;SDS011;52876;49.394;10.892;2022-08-19T14:04:13;39.27;;;32.77;;
66093;SDS011;52876;49.394;10.892;2022-08-19T14:06:41;35.93;;;31.90;;
66093;SDS011;52876;49.394;10.892;2022-08-19T14:09:07;37.93;;;33.30;;
66093;SDS011;52876;49.394;10.892;2022-08-19T14:11:34;42.17;;;37.47;;
66093;SDS011;52876;49.394;10.892;2022-08-19T14:14:02;38.50;;;34.17;;
66093;SDS011;52876;49.394;10.892;2022-08-19T14:16:30;37.00;;;33.17;;
66093;SDS011;52876;49.394;10.892;2022-08-19T14:18:56;39.17;;;34.93;;
66093;SDS011;52876;49.394;10.892;2022-08-19T14:21:23;39.67;;;35.47;;
66093;SDS011;52876;49.394;10.892;2022-08-19T14:23:51;42.97;;;36.17;;
66093;SDS011;52876;49.394;10.892;2022-08-19T14:26:19;39.90;;;33.97;;
66093;SDS011;52876;49.394;10.892;2022-08-19T14:28:46;47.93;;;40.10;;
66093;SDS011;52876;49.394;10.892;2022-08-19T14:31:15;47.43;;;40.20;;
66093;SDS011;52876;49.394;10.892;2022-08-19T14:33:43;49.17;;;39.40;;
66093;SDS011;52876;49.394;10.892;2022-08-19T14:36:13;51.70;;;39.33;;